createdAt,value
2019-01-20T00:01:09.337Z,15.07
2019-01-20T00:03:38.205Z,12.43
2019-01-20T00:06:07.153Z,13.03
2019-01-20T00:08:36.032Z,13.13
2019-01-20T00:11:05.014Z,13.17
2019-01-20T00:13:33.865Z,11.63
2019-01-20T00:16:02.743Z,12.17
2019-01-20T00:18:31.670Z,10.43
2019-01-20T00:21:00.641Z,11.97
2019-01-20T00:23:29.465Z,11.60
2019-01-20T00:25:58.321Z,11.70
2019-01-20T00:28:27.201Z,10.53
2019-01-20T00:30:56.081Z,11.83
2019-01-20T00:33:24.995Z,12.30
2019-01-20T00:35:53.848Z,11.93
2019-01-20T00:38:22.714Z,16.20
2019-01-20T00:40:51.610Z,10.43
2019-01-20T00:43:20.503Z,11.37
2019-01-20T00:45:49.402Z,12.20
2019-01-20T00:48:18.270Z,10.23
2019-01-20T00:50:47.157Z,11.43
2019-01-20T00:53:16.020Z,11.00
2019-01-20T00:55:44.920Z,9.73
2019-01-20T00:58:13.789Z,15.07
2019-01-20T01:00:42.693Z,12.40
2019-01-20T01:03:11.580Z,11.87
2019-01-20T01:05:40.464Z,13.80
2019-01-20T01:08:09.444Z,12.00
2019-01-20T01:10:38.331Z,10.77
2019-01-20T01:13:07.327Z,11.93
2019-01-20T01:15:36.216Z,11.73
2019-01-20T01:18:05.149Z,12.63
2019-01-20T01:20:34.021Z,11.50
2019-01-20T01:23:02.923Z,14.57
2019-01-20T01:25:31.790Z,10.60
2019-01-20T01:28:00.707Z,10.93
2019-01-20T01:30:29.596Z,11.20
2019-01-20T01:32:58.472Z,11.33
2019-01-20T01:35:27.375Z,10.83
2019-01-20T01:37:56.252Z,11.60
2019-01-20T01:40:25.152Z,14.43
2019-01-20T01:42:54.020Z,12.43
2019-01-20T01:45:22.940Z,10.70
2019-01-20T01:47:51.818Z,13.40
2019-01-20T01:50:20.693Z,12.63
2019-01-20T01:52:49.571Z,13.53
2019-01-20T01:55:18.489Z,16.20
2019-01-20T01:57:47.400Z,13.87
2019-01-20T02:00:18.376Z,14.63
2019-01-20T02:02:47.299Z,14.90
2019-01-20T02:05:16.212Z,14.73
2019-01-20T02:07:45.117Z,14.10
2019-01-20T02:10:16.088Z,17.40
2019-01-20T02:12:44.992Z,14.23
2019-01-20T02:15:14.792Z,16.30
2019-01-20T02:17:43.736Z,16.23
2019-01-20T02:20:14.827Z,17.60
2019-01-20T02:22:43.740Z,18.80
2019-01-20T02:25:12.644Z,17.90
2019-01-20T02:27:41.554Z,18.07
2019-01-20T02:30:14.687Z,15.47
2019-01-20T02:32:43.583Z,13.70
2019-01-20T02:35:12.487Z,15.63
2019-01-20T02:37:41.354Z,16.33
2019-01-20T02:40:10.662Z,16.30
2019-01-20T02:42:39.555Z,13.50
2019-01-20T02:45:09.687Z,17.00
2019-01-20T02:47:38.579Z,13.80
2019-01-20T02:50:08.929Z,15.10
2019-01-20T02:52:37.794Z,14.37
2019-01-20T02:55:06.750Z,15.63
2019-01-20T02:57:35.663Z,14.30
2019-01-20T03:00:07.338Z,12.63
2019-01-20T03:02:36.196Z,14.87
2019-01-20T03:05:06.568Z,12.93
2019-01-20T03:07:35.452Z,15.90
2019-01-20T03:10:05.253Z,12.13
2019-01-20T03:12:34.170Z,12.03
2019-01-20T03:15:03.052Z,14.63
2019-01-20T03:17:31.957Z,12.50
2019-01-20T03:20:00.878Z,11.53
2019-01-20T03:22:29.777Z,12.63
2019-01-20T03:24:58.653Z,12.73
2019-01-20T03:27:27.541Z,10.63
2019-01-20T03:29:56.419Z,10.83
2019-01-20T03:32:25.330Z,12.47
2019-01-20T03:34:54.244Z,10.27
2019-01-20T03:37:23.160Z,10.77
2019-01-20T03:39:52.065Z,12.87
2019-01-20T03:42:20.993Z,13.10
2019-01-20T03:44:49.883Z,11.60
2019-01-20T03:47:18.773Z,14.10
2019-01-20T03:49:47.677Z,14.67
2019-01-20T03:52:16.543Z,11.57
2019-01-20T03:54:45.453Z,11.20
2019-01-20T03:57:14.352Z,12.83
2019-01-20T03:59:43.251Z,12.37
2019-01-20T04:02:12.171Z,12.40
2019-01-20T04:04:41.052Z,11.30
2019-01-20T04:07:09.963Z,12.53
2019-01-20T04:09:38.832Z,12.97
2019-01-20T04:12:07.740Z,9.97
2019-01-20T04:14:36.631Z,11.47
2019-01-20T04:17:05.585Z,12.33
2019-01-20T04:19:34.486Z,11.13
2019-01-20T04:22:03.390Z,10.73
2019-01-20T04:24:32.279Z,10.93
2019-01-20T04:27:01.174Z,11.27
2019-01-20T04:29:30.062Z,10.03
2019-01-20T04:31:58.953Z,12.57
2019-01-20T04:34:27.833Z,11.23
2019-01-20T04:36:56.734Z,13.00
2019-01-20T04:39:25.617Z,14.53
2019-01-20T04:41:54.522Z,12.40
2019-01-20T04:44:23.398Z,10.17
2019-01-20T04:46:52.278Z,11.87
2019-01-20T04:49:21.172Z,10.87
2019-01-20T04:51:50.016Z,14.03
2019-01-20T04:54:18.908Z,11.90
2019-01-20T04:56:47.772Z,14.10
2019-01-20T04:59:16.747Z,12.43
2019-01-20T05:01:45.546Z,14.07
2019-01-20T05:04:14.452Z,11.27
2019-01-20T05:06:43.327Z,12.83
2019-01-20T05:09:12.199Z,14.13
2019-01-20T05:11:41.103Z,16.00
2019-01-20T05:14:09.981Z,11.90
2019-01-20T05:16:38.837Z,12.40
2019-01-20T05:19:07.709Z,12.90
2019-01-20T05:21:36.601Z,12.33
2019-01-20T05:24:05.514Z,10.37
2019-01-20T05:26:34.379Z,12.53
2019-01-20T05:29:03.311Z,15.77
2019-01-20T05:31:32.189Z,13.23
2019-01-20T05:34:01.069Z,16.07
2019-01-20T05:36:29.960Z,15.87
2019-01-20T05:38:58.826Z,14.50
2019-01-20T05:41:27.725Z,14.50
2019-01-20T05:43:56.642Z,16.20
2019-01-20T05:46:25.531Z,13.47
2019-01-20T05:48:54.425Z,14.07
2019-01-20T05:51:23.329Z,18.07
2019-01-20T05:53:52.209Z,17.10
2019-01-20T05:56:21.118Z,14.93
2019-01-20T05:58:49.975Z,16.47
2019-01-20T06:01:18.916Z,11.37
2019-01-20T06:03:47.786Z,13.23
2019-01-20T06:06:16.671Z,14.47
2019-01-20T06:08:45.569Z,12.57
2019-01-20T06:11:14.442Z,12.37
2019-01-20T06:13:43.317Z,12.37
2019-01-20T06:16:12.188Z,16.47
2019-01-20T06:18:41.094Z,16.00
2019-01-20T06:21:09.984Z,13.00
2019-01-20T06:23:38.860Z,12.53
2019-01-20T06:26:07.778Z,13.33
2019-01-20T06:28:36.680Z,13.37
2019-01-20T06:31:05.557Z,12.87
2019-01-20T06:33:34.419Z,13.67
2019-01-20T06:36:03.381Z,11.33
2019-01-20T06:38:32.216Z,11.47
2019-01-20T06:41:01.130Z,13.83
2019-01-20T06:43:30.037Z,11.87
2019-01-20T06:45:59.095Z,13.27
2019-01-20T06:48:27.983Z,15.07
2019-01-20T06:50:56.887Z,11.77
2019-01-20T06:53:25.757Z,11.40
2019-01-20T06:55:54.657Z,14.37
2019-01-20T06:58:23.565Z,11.43
2019-01-20T07:00:52.429Z,11.43
2019-01-20T07:03:21.336Z,13.27
2019-01-20T07:05:50.201Z,13.70
2019-01-20T07:08:19.094Z,12.27
2019-01-20T07:10:48.001Z,12.47
2019-01-20T07:13:16.895Z,11.73
2019-01-20T07:15:45.771Z,11.67
2019-01-20T07:18:14.680Z,10.10
2019-01-20T07:20:43.552Z,11.90
2019-01-20T07:23:12.440Z,12.27
2019-01-20T07:25:41.336Z,12.70
2019-01-20T07:28:10.231Z,10.47
2019-01-20T07:30:39.144Z,12.63
2019-01-20T07:33:08.133Z,10.37
2019-01-20T07:35:37.063Z,12.50
2019-01-20T07:38:06.078Z,10.77
2019-01-20T07:40:34.974Z,13.87
2019-01-20T07:43:03.886Z,11.70
2019-01-20T07:45:32.775Z,10.97
2019-01-20T07:48:01.695Z,13.43
2019-01-20T07:50:30.634Z,11.70
2019-01-20T07:52:59.516Z,10.10
2019-01-20T07:55:28.439Z,11.73
2019-01-20T07:57:57.362Z,10.97
2019-01-20T08:00:26.386Z,13.70
2019-01-20T08:02:55.347Z,14.23
2019-01-20T08:05:24.237Z,12.70
2019-01-20T08:07:53.175Z,11.43
2019-01-20T08:10:27.479Z,10.27
2019-01-20T08:12:56.401Z,10.93
2019-01-20T08:15:25.304Z,11.00
2019-01-20T08:17:54.217Z,15.00
2019-01-20T08:20:23.403Z,12.00
2019-01-20T08:22:52.335Z,12.43
2019-01-20T08:25:21.567Z,11.03
2019-01-20T08:27:50.506Z,12.27
2019-01-20T08:30:21.341Z,13.13
2019-01-20T08:32:50.242Z,14.90
2019-01-20T08:35:19.179Z,10.87
2019-01-20T08:37:48.127Z,11.37
2019-01-20T08:40:19.527Z,10.47
2019-01-20T08:42:48.446Z,9.17
2019-01-20T08:45:24.788Z,11.53
2019-01-20T08:48:01.148Z,12.60
2019-01-20T08:50:30.089Z,10.97
2019-01-20T08:52:59.003Z,9.33
2019-01-20T08:55:27.895Z,12.93
2019-01-20T08:57:56.786Z,11.17
2019-01-20T09:00:25.684Z,14.13
2019-01-20T09:02:54.596Z,14.13
2019-01-20T09:05:23.473Z,11.93
2019-01-20T09:07:52.394Z,13.23
2019-01-20T09:10:23.915Z,10.67
2019-01-20T09:12:52.834Z,12.00
2019-01-20T09:15:21.795Z,13.10
2019-01-20T09:17:50.692Z,11.33
2019-01-20T09:20:19.605Z,10.63
2019-01-20T09:22:48.497Z,10.63
2019-01-20T09:25:17.369Z,9.97
2019-01-20T09:27:46.334Z,10.67
2019-01-20T09:30:17.724Z,11.33
2019-01-20T09:32:46.591Z,12.40
2019-01-20T09:35:15.495Z,12.53
2019-01-20T09:37:44.385Z,12.05
2019-01-20T09:40:14.085Z,10.43
2019-01-20T09:42:42.986Z,10.77
2019-01-20T09:45:17.122Z,14.80
2019-01-20T09:47:46.011Z,9.87
2019-01-20T09:50:14.898Z,9.70
2019-01-20T09:52:43.790Z,11.83
2019-01-20T09:55:12.693Z,8.43
2019-01-20T09:57:41.576Z,9.17
2019-01-20T10:00:13.590Z,9.10
2019-01-20T10:02:42.483Z,9.27
2019-01-20T10:05:11.365Z,9.50
2019-01-20T10:07:40.277Z,8.93
2019-01-20T10:10:11.616Z,9.00
2019-01-20T10:12:40.489Z,8.73
2019-01-20T10:15:10.426Z,10.00
2019-01-20T10:17:39.319Z,9.03
2019-01-20T10:20:19.696Z,10.77
2019-01-20T10:22:48.576Z,9.30
2019-01-20T10:25:17.465Z,9.30
2019-01-20T10:27:46.345Z,10.43
2019-01-20T10:30:18.578Z,8.80
2019-01-20T10:32:48.119Z,8.40
2019-01-20T10:35:16.373Z,9.17
2019-01-20T10:37:45.285Z,8.93
2019-01-20T10:40:14.188Z,8.83
2019-01-20T10:42:43.058Z,8.43
2019-01-20T10:45:11.945Z,9.43
2019-01-20T10:47:40.789Z,9.00
2019-01-20T10:50:10.460Z,10.47
2019-01-20T10:52:39.361Z,8.93
2019-01-20T10:55:08.517Z,9.38
2019-01-20T10:57:37.327Z,8.50
2019-01-20T11:00:11.387Z,8.75
2019-01-20T11:02:40.252Z,9.60
2019-01-20T11:05:09.368Z,9.60
2019-01-20T11:07:38.284Z,9.33
2019-01-20T11:10:07.954Z,7.92
2019-01-20T11:12:36.873Z,8.60
2019-01-20T11:15:06.683Z,8.58
2019-01-20T11:17:35.535Z,8.70
2019-01-20T11:20:05.115Z,9.45
2019-01-20T11:22:33.985Z,8.78
2019-01-20T11:25:02.898Z,8.50
2019-01-20T11:27:31.752Z,8.70
2019-01-20T11:30:00.621Z,10.63
2019-01-20T11:32:29.664Z,8.70
2019-01-20T11:34:58.526Z,9.48
2019-01-20T11:37:27.412Z,7.72
2019-01-20T11:39:56.292Z,7.80
2019-01-20T11:42:25.213Z,8.45
2019-01-20T11:44:54.091Z,10.90
2019-01-20T11:47:22.958Z,7.75
2019-01-20T11:49:51.912Z,7.50
2019-01-20T11:52:20.780Z,7.22
2019-01-20T11:54:49.669Z,8.07
2019-01-20T11:57:18.572Z,7.70
2019-01-20T11:59:47.460Z,8.43
2019-01-20T12:02:22.362Z,8.33
2019-01-20T12:04:45.235Z,8.60
2019-01-20T12:07:14.106Z,8.87
2019-01-20T12:09:42.991Z,9.00
2019-01-20T12:12:11.889Z,8.90
2019-01-20T12:14:40.763Z,11.57
2019-01-20T12:17:09.624Z,9.33
2019-01-20T12:19:38.517Z,10.07
2019-01-20T12:22:07.575Z,9.20
2019-01-20T12:24:36.461Z,8.70
2019-01-20T12:27:05.546Z,9.20
2019-01-20T12:29:34.380Z,10.27
2019-01-20T12:32:03.255Z,9.33
2019-01-20T12:34:32.134Z,7.83
2019-01-20T12:37:00.991Z,12.97
2019-01-20T12:39:29.887Z,9.37
2019-01-20T12:41:58.752Z,9.40
2019-01-20T12:44:31.535Z,9.43
2019-01-20T12:46:56.515Z,9.60
2019-01-20T12:49:25.386Z,9.63
2019-01-20T12:51:54.270Z,10.17
2019-01-20T12:54:23.134Z,11.50
2019-01-20T12:56:52.011Z,9.50
2019-01-20T12:59:20.876Z,9.87
2019-01-20T13:01:49.764Z,9.13
2019-01-20T13:04:18.662Z,8.37
2019-01-20T13:06:47.541Z,11.50
2019-01-20T13:09:16.416Z,9.50
2019-01-20T13:11:45.270Z,11.00
2019-01-20T13:14:14.173Z,7.77
2019-01-20T13:16:43.043Z,9.13
2019-01-20T13:19:11.930Z,9.83
2019-01-20T13:21:40.786Z,8.43
2019-01-20T13:24:09.674Z,9.93
2019-01-20T13:26:38.608Z,9.00
2019-01-20T13:29:07.516Z,8.60
2019-01-20T13:31:36.416Z,10.70
2019-01-20T13:34:05.390Z,10.27
2019-01-20T13:36:34.277Z,10.93
2019-01-20T13:39:03.139Z,9.37
2019-01-20T13:41:33.375Z,8.37
2019-01-20T13:44:02.236Z,9.37
2019-01-20T13:46:31.096Z,9.50
2019-01-20T13:48:59.949Z,11.73
2019-01-20T13:51:28.856Z,10.57
2019-01-20T13:53:57.727Z,10.93
2019-01-20T13:56:26.622Z,12.40
2019-01-20T13:58:55.502Z,11.63
2019-01-20T14:01:24.358Z,9.67
2019-01-20T14:03:53.242Z,9.63
2019-01-20T14:06:22.117Z,12.53
2019-01-20T14:08:50.978Z,9.90
2019-01-20T14:11:19.874Z,11.63
2019-01-20T14:13:48.813Z,11.10
2019-01-20T14:16:17.693Z,11.40
2019-01-20T14:18:46.592Z,11.57
2019-01-20T14:21:15.477Z,11.55
2019-01-20T14:23:44.363Z,11.50
2019-01-20T14:26:13.240Z,11.93
2019-01-20T14:28:42.125Z,9.67
2019-01-20T14:31:10.981Z,12.17
2019-01-20T14:33:39.865Z,12.30
2019-01-20T14:36:08.829Z,9.43
2019-01-20T14:38:37.721Z,10.43
2019-01-20T14:41:06.686Z,9.23
2019-01-20T14:43:35.569Z,9.27
2019-01-20T14:46:04.547Z,11.23
2019-01-20T14:48:33.395Z,9.80
2019-01-20T14:51:02.293Z,10.57
2019-01-20T14:53:31.156Z,11.43
2019-01-20T14:56:00.061Z,14.50
2019-01-20T14:58:28.941Z,8.73
2019-01-20T15:00:57.886Z,8.77
2019-01-20T15:03:26.716Z,11.77
2019-01-20T15:05:55.594Z,10.17
2019-01-20T15:08:24.482Z,10.57
2019-01-20T15:10:53.360Z,12.13
2019-01-20T15:13:22.245Z,9.20
2019-01-20T15:15:51.162Z,12.77
2019-01-20T15:18:19.996Z,12.63
2019-01-20T15:20:48.867Z,9.83
2019-01-20T15:23:17.762Z,9.60
2019-01-20T15:25:46.642Z,13.43
2019-01-20T15:28:15.516Z,11.10
2019-01-20T15:30:44.396Z,11.37
2019-01-20T15:33:13.263Z,10.87
2019-01-20T15:35:42.146Z,10.17
2019-01-20T15:38:11.041Z,9.70
2019-01-20T15:40:39.953Z,10.07
2019-01-20T15:43:08.918Z,11.37
2019-01-20T15:45:37.812Z,10.03
2019-01-20T15:48:06.861Z,12.67
2019-01-20T15:50:35.675Z,14.30
2019-01-20T15:53:04.637Z,11.67
2019-01-20T15:55:33.516Z,15.53
2019-01-20T15:58:02.407Z,11.47
2019-01-20T16:00:32.024Z,12.73
2019-01-20T16:03:03.995Z,11.27
2019-01-20T16:05:32.834Z,11.50
2019-01-20T16:08:01.720Z,10.03
2019-01-20T16:10:30.604Z,12.33
2019-01-20T16:12:59.485Z,12.10
2019-01-20T16:15:33.715Z,11.73
2019-01-20T16:18:02.595Z,13.40
2019-01-20T16:20:32.067Z,14.03
2019-01-20T16:23:02.127Z,11.33
2019-01-20T16:25:32.887Z,12.90
2019-01-20T16:28:01.762Z,12.73
2019-01-20T16:30:32.890Z,11.93
2019-01-20T16:33:01.772Z,11.57
2019-01-20T16:35:30.665Z,11.43
2019-01-20T16:37:59.962Z,12.07
2019-01-20T16:40:28.847Z,12.03
2019-01-20T16:42:57.706Z,11.40
2019-01-20T16:45:33.019Z,10.93
2019-01-20T16:47:58.752Z,12.40
2019-01-20T16:50:27.667Z,12.20
2019-01-20T16:52:56.570Z,12.17
2019-01-20T16:55:25.451Z,14.33
2019-01-20T16:57:54.331Z,9.57
2019-01-20T17:00:25.341Z,11.93
2019-01-20T17:02:54.339Z,12.40
2019-01-20T17:05:26.691Z,12.73
2019-01-20T17:07:52.184Z,12.13
2019-01-20T17:10:23.420Z,12.73
2019-01-20T17:12:52.314Z,11.97
2019-01-20T17:15:23.681Z,10.80
2019-01-20T17:17:52.530Z,13.27
2019-01-20T17:20:21.402Z,13.05
2019-01-20T17:22:50.291Z,11.07
2019-01-20T17:25:19.211Z,15.63
2019-01-20T17:27:48.068Z,12.00
2019-01-20T17:30:19.382Z,15.33
2019-01-20T17:32:48.255Z,10.63
2019-01-20T17:35:17.167Z,14.40
2019-01-20T17:37:46.039Z,12.43
2019-01-20T17:40:17.311Z,12.13
2019-01-20T17:42:46.204Z,12.63
2019-01-20T17:45:18.037Z,11.27
2019-01-20T17:47:46.926Z,13.70
2019-01-20T17:50:21.368Z,11.57
2019-01-20T17:52:50.258Z,13.17
2019-01-20T17:55:19.155Z,13.83
2019-01-20T17:57:48.044Z,14.47
2019-01-20T18:00:19.468Z,13.63
2019-01-20T18:02:48.387Z,12.30
2019-01-20T18:05:19.434Z,11.20
2019-01-20T18:07:48.390Z,12.17
2019-01-20T18:10:17.288Z,13.40
2019-01-20T18:12:46.218Z,13.77
2019-01-20T18:15:16.017Z,14.53
2019-01-20T18:17:44.886Z,12.80
2019-01-20T18:20:19.016Z,12.47
2019-01-20T18:22:47.909Z,12.27
2019-01-20T18:25:17.125Z,13.13
2019-01-20T18:27:46.077Z,13.53
2019-01-20T18:30:17.567Z,13.87
2019-01-20T18:32:46.501Z,13.25
2019-01-20T18:35:15.429Z,11.37
2019-01-20T18:37:44.290Z,13.27
2019-01-20T18:40:15.166Z,12.60
2019-01-20T18:42:44.157Z,13.40
2019-01-20T18:45:15.071Z,12.50
2019-01-20T18:47:43.979Z,11.37
2019-01-20T18:50:15.571Z,100.03
2019-01-20T18:52:44.488Z,55.73
2019-01-20T18:55:13.804Z,22.67
2019-01-20T18:57:42.703Z,19.90
2019-01-20T19:00:15.345Z,18.50
2019-01-20T19:02:44.240Z,13.10
2019-01-20T19:05:14.266Z,14.07
2019-01-20T19:07:43.156Z,19.67
2019-01-20T19:10:13.126Z,15.60
2019-01-20T19:12:42.019Z,15.37
2019-01-20T19:15:12.161Z,12.23
2019-01-20T19:17:41.053Z,13.03
2019-01-20T19:20:12.859Z,12.83
2019-01-20T19:22:41.753Z,13.07
2019-01-20T19:25:10.680Z,15.00
2019-01-20T19:27:39.619Z,13.20
2019-01-20T19:30:12.346Z,14.87
2019-01-20T19:32:41.233Z,13.07
2019-01-20T19:35:10.170Z,14.40
2019-01-20T19:37:39.041Z,14.47
2019-01-20T19:40:09.148Z,13.80
2019-01-20T19:42:38.054Z,14.73
2019-01-20T19:45:08.848Z,15.13
2019-01-20T19:47:37.752Z,14.23
2019-01-20T19:50:07.906Z,13.63
2019-01-20T19:52:36.837Z,13.93
2019-01-20T19:55:08.668Z,14.73
2019-01-20T19:57:37.601Z,14.03
2019-01-20T20:00:08.766Z,13.47
2019-01-20T20:02:37.685Z,15.37
2019-01-20T20:05:10.043Z,15.57
2019-01-20T20:07:38.977Z,16.80
2019-01-20T20:10:09.374Z,17.80
2019-01-20T20:12:38.293Z,17.03
2019-01-20T20:15:10.225Z,16.47
2019-01-20T20:17:39.144Z,14.17
2019-01-20T20:20:09.192Z,17.30
2019-01-20T20:22:38.086Z,18.23
2019-01-20T20:25:07.970Z,17.43
2019-01-20T20:27:36.884Z,17.23
2019-01-20T20:30:09.869Z,17.90
2019-01-20T20:32:38.759Z,16.57
2019-01-20T20:35:08.098Z,14.30
2019-01-20T20:37:36.964Z,15.33
2019-01-20T20:40:07.062Z,14.67
2019-01-20T20:42:35.975Z,16.30
2019-01-20T20:45:05.993Z,13.93
2019-01-20T20:47:34.872Z,14.30
2019-01-20T20:50:04.191Z,14.33
2019-01-20T20:52:33.094Z,17.02
2019-01-20T20:55:02.028Z,15.03
2019-01-20T20:57:32.029Z,15.47
2019-01-20T20:59:59.862Z,16.80
2019-01-20T21:02:28.769Z,17.53
2019-01-20T21:04:57.673Z,15.90
2019-01-20T21:07:26.537Z,16.13
2019-01-20T21:09:56.525Z,18.30
2019-01-20T21:12:24.314Z,17.80
2019-01-20T21:14:53.188Z,15.93
2019-01-20T21:17:22.086Z,15.43
2019-01-20T21:19:50.989Z,17.23
2019-01-20T21:22:19.915Z,19.73
2019-01-20T21:24:48.791Z,16.77
2019-01-20T21:27:17.666Z,20.27
2019-01-20T21:29:46.559Z,17.97
2019-01-20T21:32:15.459Z,19.27
2019-01-20T21:34:44.339Z,20.87
2019-01-20T21:37:13.226Z,18.13
2019-01-20T21:39:42.134Z,17.40
2019-01-20T21:42:11.004Z,17.23
2019-01-20T21:44:39.929Z,18.70
2019-01-20T21:47:08.890Z,17.83
2019-01-20T21:49:37.784Z,17.03
2019-01-20T21:52:06.794Z,19.13
2019-01-20T21:54:35.724Z,18.37
2019-01-20T21:57:04.618Z,17.43
2019-01-20T21:59:33.534Z,17.90
2019-01-20T22:02:02.460Z,19.47
2019-01-20T22:04:31.325Z,20.80
2019-01-20T22:07:00.236Z,17.43
2019-01-20T22:09:29.127Z,18.83
2019-01-20T22:11:58.010Z,18.33
2019-01-20T22:14:26.907Z,22.73
2019-01-20T22:16:55.795Z,22.70
2019-01-20T22:19:24.678Z,18.63
2019-01-20T22:21:53.055Z,21.13
2019-01-20T22:24:21.949Z,20.00
2019-01-20T22:26:50.825Z,21.57
2019-01-20T22:29:19.762Z,18.93
2019-01-20T22:31:48.642Z,18.37
2019-01-20T22:34:17.517Z,20.67
2019-01-20T22:36:46.407Z,19.60
2019-01-20T22:39:15.288Z,20.50
2019-01-20T22:41:44.225Z,22.47
2019-01-20T22:44:13.055Z,21.17
2019-01-20T22:46:41.938Z,19.90
2019-01-20T22:49:10.832Z,19.17
2019-01-20T22:51:39.725Z,24.03
2019-01-20T22:54:08.623Z,22.50
2019-01-20T22:56:37.504Z,20.43
2019-01-20T22:59:06.405Z,18.53
2019-01-20T23:01:35.287Z,21.87
2019-01-20T23:04:04.377Z,20.97
2019-01-20T23:06:33.365Z,19.87
2019-01-20T23:09:06.447Z,19.97
2019-01-20T23:11:31.043Z,23.23
2019-01-20T23:13:59.931Z,24.80
2019-01-20T23:16:28.820Z,22.63
2019-01-20T23:18:57.711Z,20.23
2019-01-20T23:21:26.605Z,19.20
2019-01-20T23:23:55.503Z,22.30
2019-01-20T23:26:24.394Z,20.07
2019-01-20T23:28:53.356Z,22.30
2019-01-20T23:31:22.177Z,21.67
2019-01-20T23:33:51.084Z,20.30
2019-01-20T23:36:19.985Z,19.70
2019-01-20T23:38:48.883Z,20.43
2019-01-20T23:41:17.824Z,25.97
2019-01-20T23:43:46.742Z,22.50
2019-01-20T23:46:15.589Z,23.00
2019-01-20T23:48:44.492Z,24.47
2019-01-20T23:51:13.399Z,23.47
2019-01-20T23:53:42.481Z,23.37
2019-01-20T23:56:11.199Z,25.97
2019-01-20T23:58:40.107Z,24.00
